Hauptseite
METAR-TAF:

METAR-TAF

Flughäfen :

Wick Airport

Wick, Schottland

Breite: 58-27N, Länge: 003-05W, Höhe: 39 m

Beobachtung

Neuester Wetterbericht von vor 15 Minuten, um 19:50 UTC
Wind 7 kt aus West
Temperatur 1°C
Luftfeuchtigkeit 86%
Luftdruck 1019 hPa
Sichtweite 10 km oder mehr
Leichtregen

METAR: EGPC 201950Z AUTO 27007KT 9999 -RA FEW044/// 01/M01 Q1019

Zeit: 20:05 (20:05 UTC)

Prognose

Neuester Wetterbericht von vor 3 Stunden und 10 Minuten, um 16:55 UTC
Gültige Prognose vom 20 um 18 UTC bis 21 um 03 UTC
Wind 15 kt aus West/Nordwest
Sichtweite 10 km oder mehr
Aufgelockert bewölkt in der Höhe von 3500 ft
Wahrscheinlichkeit 30% :
Zeitweise
vom 20 um 18 UTC bis 21 um 03 UTC
Sichtweite: 6000 m
Regenschauer
Übergehend zu
vom 20 um 21 UTC bis 20 um 24 UTC
Wind 10 kt aus Südwest

TAF: EGPC 201655Z 2018/2103 29015KT 9999 SCT035 PROB30 TEMPO 2018/2103 6000 -SHRA BECMG 2021/2024 22010KT

Wetterbeobachtungen und Prognosen von mehr als 4000 Flughäfen (METAR und TAF Bericht).

Die verfügbaren Stationen werden durch gelbe und rote Markierungen auf der Karte dargestellt.

Führen Sie die Maus auf sie, um den Namen der Station zu sehen.

Darauf klicken, um die Beobachtung von Wetterbeobachtungen und Prognosen zu sehen.

Um die Karte zu ändern : klicken Sie auf den grünen Tasten mit einem schwarzen Kreuz Zum Vergrößern, auf den grünen Button mit einem Gedankenstrich zu verkleinern, oder auf die grünen Pfeile für benachbarte Karten.


METAR-TAF: